Accueil
METAR-TAF:

METAR-TAF

Aéroports :

Offutt Air Force Base

Omaha, Nebraska, États-Unis

latitude: 41-07N, longitude: 095-54W, altitude: 319 m

Observation

Le bulletin a été fait il y a 45 minutes, à 09:55 UTC
Vent calme
Température 23°C
Humidité 89%
Pression 1009 hPa
Visibilité: 16.1 km
Ciel clair

METAR: KOFF 150955Z 00000KT 10SM CLR 23/21 A2980 RMK AO2A SLP082 T02270211 $

Heure: 05:40 (10:40 UTC)

Prévision

Le bulletin a été fait il y a 40 minutes, à 10:00 UTC
Prévision valable du 15 à 10 UTC au 16 à 16 UTC
Vent 6 kt de direction variable
Visibilité 10 km ou plus
Ciel clair
Evoluant progressivement
du 15 à 15 UTC au 15 à 16 UTC
Vent 6 kt de direction variable
Visibilité 10 km ou plus
Quelques nuages à une hauteur de 18000 ft

TAF: KOFF 151000Z 1510/1616 VRB06KT 9999 SKC QNH2977INS BECMG 1515/1516 VRB06KT 9999 FEW180 QNH2969INS TX36/1522Z TN22/1610Z

Observations et prévisions météorologiques de plus de 4000 aéroports (messages METAR et TAF).

Les stations disponibles sont représentées par des disques jaunes et rouges sur la carte.

Passer la souris dessus pour voir le nom de la station.

Cliquer dessus pour voir les observations et prévisions météorologiques.

Pour changer de carte: cliquez sur les boutons verts avec une croix noire pour zoomer, sur le bouton vert avec un tiret pour effectuer un zoom arrière, ou sur les flèches vertes pour les cartes adjacentes.


METAR-TAF: